HTAR

Arusha Airport

Arusha, Tanzania
METAR HTAR 260100Z 35005KT 9999 FEW022 18/13 Q1015
Observed Flight Rules
Feb-26 @ 01:00 UTC (3 hours ago) Visual Flight Rules
Wind Visibility Clouds
350° at 5 knots 10,000+ meters
  • Few at 2,200' AGL
Temperatures Readings
Current 18°C / 64°F
Dewpoint 13°C / 55°F
Humidity 73%
Altimeter 29.97" Hg
Pressure 1015 hPa
Elevation 1387
METAR HTAR 260100Z 35005KT 9999 FEW022 18/13 Q1015
Observed Flight Rules
Feb-26 @ 01:00 UTC
(3 hours ago)
VFR
Wind Visibility
350° at 5 knots 10,000+ meters
Clouds
  • Few at 2,200' AGL
Temperature Dewpoint
18°C / 64°F 13°C / 55°F
Humidity Altimeter Pressure
73% 29.97" Hg 1015 hPa